createdAt,value
2022-10-19T00:01:20.031Z,10.20
2022-10-19T00:03:52.771Z,10.20
2022-10-19T00:06:25.651Z,10.10
2022-10-19T00:08:54.545Z,10.10
2022-10-19T00:11:23.775Z,10.10
2022-10-19T00:13:51.846Z,10.00
2022-10-19T00:16:20.427Z,10.00
2022-10-19T00:18:49.794Z,10.10
2022-10-19T00:21:20.549Z,10.00
2022-10-19T00:23:49.963Z,10.00
2022-10-19T00:26:18.154Z,10.00
2022-10-19T00:28:46.948Z,9.90
2022-10-19T00:31:18.417Z,9.80
2022-10-19T00:33:47.795Z,9.90
2022-10-19T00:36:24.186Z,9.90
2022-10-19T00:38:53.895Z,9.80
2022-10-19T00:41:24.640Z,9.80
2022-10-19T00:43:56.531Z,9.80
2022-10-19T00:46:25.601Z,9.80
2022-10-19T00:49:00.287Z,9.80
2022-10-19T00:51:33.128Z,9.80
2022-10-19T00:54:05.049Z,9.70
2022-10-19T00:56:34.384Z,9.70
2022-10-19T00:59:05.328Z,9.70
2022-10-19T01:01:35.214Z,9.70
2022-10-19T01:04:05.180Z,9.70
2022-10-19T01:06:35.062Z,9.70
2022-10-19T01:09:03.255Z,9.60
2022-10-19T01:11:44.940Z,9.60
2022-10-19T01:14:32.463Z,9.60
2022-10-19T01:17:13.922Z,9.60
2022-10-19T01:20:33.360Z,9.60
2022-10-19T01:23:40.773Z,9.70
2022-10-19T01:26:32.956Z,9.80
2022-10-19T01:29:18.447Z,9.90
2022-10-19T01:31:59.462Z,10.00
2022-10-19T01:34:36.746Z,10.00
2022-10-19T01:37:18.178Z,10.10
2022-10-19T01:39:54.677Z,10.10
2022-10-19T01:42:32.768Z,10.10
2022-10-19T01:45:10.263Z,10.10
2022-10-19T01:47:48.120Z,10.00
2022-10-19T01:50:25.128Z,10.10
2022-10-19T01:52:56.511Z,10.10
2022-10-19T01:55:28.165Z,10.20
2022-10-19T01:58:04.137Z,10.20
2022-10-19T02:00:40.396Z,10.20
2022-10-19T02:03:11.925Z,10.20
2022-10-19T02:05:42.580Z,10.30
2022-10-19T02:08:18.331Z,10.30
2022-10-19T02:10:48.301Z,10.40
2022-10-19T02:13:17.806Z,10.30
2022-10-19T02:15:51.815Z,10.30
2022-10-19T02:18:28.099Z,10.30
2022-10-19T02:20:56.953Z,10.30
2022-10-19T02:23:27.933Z,10.30
2022-10-19T02:25:57.651Z,10.30
2022-10-19T02:28:27.261Z,10.30
2022-10-19T02:30:55.609Z,10.50
2022-10-19T02:33:25.241Z,10.20
2022-10-19T02:35:53.314Z,10.10
2022-10-19T02:38:25.132Z,10.10
2022-10-19T02:41:04.064Z,10.00
2022-10-19T02:43:37.174Z,10.00
2022-10-19T02:46:11.706Z,9.90
2022-10-19T02:48:43.351Z,9.90
2022-10-19T02:51:31.202Z,9.80
2022-10-19T02:54:01.275Z,9.70
2022-10-19T02:56:33.017Z,9.70
2022-10-19T02:59:00.989Z,9.60
2022-10-19T03:01:29.254Z,9.50
2022-10-19T03:03:58.646Z,9.50
2022-10-19T03:06:26.654Z,9.50
2022-10-19T03:08:54.728Z,9.50
2022-10-19T03:11:22.714Z,9.50
2022-10-19T03:13:50.727Z,9.50
2022-10-19T03:16:18.934Z,9.50
2022-10-19T03:18:48.879Z,9.50
2022-10-19T03:21:19.373Z,9.60
2022-10-19T03:23:48.028Z,9.50
2022-10-19T03:26:18.202Z,9.60
2022-10-19T03:28:46.464Z,9.60
2022-10-19T03:31:14.458Z,9.50
2022-10-19T03:33:42.457Z,9.50
2022-10-19T03:36:25.717Z,9.50
2022-10-19T03:38:54.910Z,9.40
2022-10-19T03:41:24.966Z,9.50
2022-10-19T03:43:53.604Z,9.40
2022-10-19T03:46:22.506Z,9.40
2022-10-19T03:48:51.189Z,9.40
2022-10-19T03:51:23.640Z,9.40
2022-10-19T03:53:54.960Z,9.30
2022-10-19T03:56:26.712Z,9.40
2022-10-19T03:58:56.892Z,9.30
2022-10-19T04:01:28.161Z,9.30
2022-10-19T04:03:57.702Z,9.30
2022-10-19T04:06:30.089Z,9.20
2022-10-19T04:08:59.003Z,9.10
2022-10-19T04:11:30.703Z,9.10
2022-10-19T04:14:00.368Z,9.10
2022-10-19T04:16:31.558Z,9.10
2022-10-19T04:19:00.821Z,9.10
2022-10-19T04:21:32.753Z,9.10
2022-10-19T04:24:05.383Z,9.10
2022-10-19T04:26:33.932Z,9.10
2022-10-19T04:29:02.924Z,9.10
2022-10-19T04:31:31.054Z,9.10
2022-10-19T04:33:59.242Z,9.00
2022-10-19T04:36:28.827Z,9.00
2022-10-19T04:38:56.823Z,9.00
2022-10-19T04:41:25.157Z,9.00
2022-10-19T04:43:58.214Z,9.10
2022-10-19T04:46:28.286Z,9.00
2022-10-19T04:48:57.906Z,9.10
2022-10-19T04:51:26.931Z,9.00
2022-10-19T04:53:59.592Z,9.00
2022-10-19T04:56:29.199Z,9.10
2022-10-19T04:58:59.136Z,9.00
2022-10-19T05:01:29.757Z,9.00
2022-10-19T05:04:00.551Z,9.00
2022-10-19T05:06:29.785Z,8.90
2022-10-19T05:08:59.764Z,8.90
2022-10-19T05:11:28.070Z,8.80
2022-10-19T05:13:57.981Z,8.80
2022-10-19T05:16:26.658Z,8.90
2022-10-19T05:18:58.749Z,8.80
2022-10-19T05:21:29.566Z,8.80
2022-10-19T05:23:59.280Z,8.80
2022-10-19T05:26:30.130Z,8.90
2022-10-19T05:29:01.858Z,9.00
2022-10-19T05:31:32.808Z,9.10
2022-10-19T05:34:01.484Z,9.20
2022-10-19T05:36:34.555Z,9.20
2022-10-19T05:39:07.263Z,9.30
2022-10-19T05:41:35.704Z,9.30
2022-10-19T05:44:05.707Z,9.40
2022-10-19T05:46:35.055Z,9.40
2022-10-19T05:49:03.114Z,9.40
2022-10-19T05:51:31.151Z,9.40
2022-10-19T05:53:59.287Z,9.50
2022-10-19T05:56:31.195Z,9.50
2022-10-19T05:59:01.705Z,9.50
2022-10-19T06:01:31.176Z,9.60
2022-10-19T06:04:01.270Z,9.60
2022-10-19T06:06:31.364Z,9.60
2022-10-19T06:08:59.944Z,9.60
2022-10-19T06:11:33.901Z,9.60
2022-10-19T06:14:05.574Z,9.60
2022-10-19T06:16:34.823Z,9.70
2022-10-19T06:19:02.908Z,9.70
2022-10-19T06:21:33.143Z,9.70
2022-10-19T06:24:04.076Z,9.70
2022-10-19T06:26:35.675Z,9.80
2022-10-19T06:29:05.239Z,9.90
2022-10-19T06:31:36.284Z,9.90
2022-10-19T06:34:05.236Z,10.00
2022-10-19T06:36:34.227Z,10.00
2022-10-19T06:39:02.948Z,10.00
2022-10-19T06:41:34.160Z,10.10
2022-10-19T06:44:02.909Z,10.20
2022-10-19T06:46:32.207Z,10.20
2022-10-19T06:49:02.379Z,10.20
2022-10-19T06:51:33.938Z,10.30
2022-10-19T06:54:02.191Z,10.30
2022-10-19T06:56:30.474Z,10.40
2022-10-19T06:59:00.366Z,10.40
2022-10-19T07:01:28.489Z,10.60
2022-10-19T07:03:56.546Z,10.50
2022-10-19T07:06:25.103Z,10.50
2022-10-19T07:08:53.948Z,10.50
2022-10-19T07:11:23.346Z,10.60
2022-10-19T07:13:53.297Z,10.60
2022-10-19T07:16:23.234Z,10.70
2022-10-19T07:18:54.079Z,10.70
2022-10-19T07:21:24.393Z,10.70
2022-10-19T07:23:53.166Z,10.80
2022-10-19T07:26:26.764Z,10.90
2022-10-19T07:28:57.657Z,11.00
2022-10-19T07:31:28.963Z,10.90
2022-10-19T07:34:00.300Z,11.00
2022-10-19T07:36:30.466Z,11.10
2022-10-19T07:38:58.861Z,11.20
2022-10-19T07:41:27.442Z,11.20
2022-10-19T07:43:57.740Z,11.30
2022-10-19T07:46:33.334Z,11.40
2022-10-19T07:49:01.850Z,11.40
2022-10-19T07:51:30.016Z,11.40
2022-10-19T07:53:59.533Z,11.50
2022-10-19T07:56:29.304Z,11.60
2022-10-19T07:58:59.766Z,11.70
2022-10-19T08:01:32.648Z,11.70
2022-10-19T08:06:50.522Z,11.70
2022-10-19T08:09:47.194Z,11.70
2022-10-19T08:12:09.043Z,11.70
2022-10-19T08:14:39.348Z,11.80
2022-10-19T08:17:11.522Z,11.90
2022-10-19T08:19:43.097Z,11.90
2022-10-19T08:22:11.788Z,11.90
2022-10-19T08:24:39.937Z,12.00
2022-10-19T08:27:07.980Z,12.00
2022-10-19T08:29:35.982Z,12.00
2022-10-19T08:32:03.969Z,12.10
2022-10-19T08:34:33.921Z,12.20
2022-10-19T08:37:10.164Z,12.30
2022-10-19T08:39:48.052Z,12.30
2022-10-19T08:42:22.307Z,12.30
2022-10-19T08:45:23.234Z,12.40
2022-10-19T08:48:13.594Z,12.40
2022-10-19T08:50:48.051Z,12.60
2022-10-19T08:53:23.358Z,12.60
2022-10-19T08:56:12.385Z,12.70
2022-10-19T08:59:03.761Z,12.80
2022-10-19T09:01:41.891Z,12.90
2022-10-19T09:04:20.528Z,13.00
2022-10-19T09:07:10.912Z,13.10
2022-10-19T09:09:47.656Z,13.20
2022-10-19T09:12:22.065Z,13.30
2022-10-19T09:15:01.623Z,13.40
2022-10-19T09:17:33.208Z,13.50
2022-10-19T09:20:18.109Z,13.60
2022-10-19T09:22:57.822Z,13.70
2022-10-19T09:25:29.114Z,13.90
2022-10-19T09:28:15.549Z,13.90
2022-10-19T09:30:47.511Z,13.90
2022-10-19T09:33:24.677Z,14.10
2022-10-19T09:35:55.053Z,14.10
2022-10-19T09:38:29.224Z,14.30
2022-10-19T09:40:59.227Z,14.30
2022-10-19T09:43:28.280Z,14.40
2022-10-19T09:46:13.864Z,14.40
2022-10-19T09:48:51.450Z,14.40
2022-10-19T09:51:21.909Z,14.30
2022-10-19T09:53:54.833Z,14.20
2022-10-19T09:56:25.926Z,14.20
2022-10-19T09:58:57.969Z,14.30
2022-10-19T10:01:41.602Z,14.30
2022-10-19T10:04:15.859Z,14.20
2022-10-19T10:06:49.055Z,14.30
2022-10-19T10:09:20.607Z,14.20
2022-10-19T10:11:51.844Z,14.30
2022-10-19T10:14:25.000Z,14.30
2022-10-19T10:16:57.201Z,14.20
2022-10-19T10:19:30.270Z,14.20
2022-10-19T10:22:00.758Z,14.20
2022-10-19T10:24:32.698Z,14.20
2022-10-19T10:27:04.198Z,14.30
2022-10-19T10:29:35.445Z,14.30
2022-10-19T10:32:09.811Z,14.40
2022-10-19T10:34:59.937Z,14.20
2022-10-19T10:37:38.520Z,14.10
2022-10-19T10:40:23.806Z,14.00
2022-10-19T10:42:55.068Z,14.00
2022-10-19T10:45:30.215Z,14.00
2022-10-19T10:48:00.745Z,13.90
2022-10-19T10:50:37.251Z,14.10
2022-10-19T10:53:08.833Z,14.00
2022-10-19T10:55:38.211Z,14.10
2022-10-19T10:58:20.750Z,14.20
2022-10-19T11:00:53.234Z,14.30
2022-10-19T11:03:28.806Z,14.30
2022-10-19T11:05:59.843Z,14.50
2022-10-19T11:08:35.077Z,14.50
2022-10-19T11:11:16.225Z,14.40
2022-10-19T11:13:52.666Z,14.40
2022-10-19T11:16:27.907Z,14.50
2022-10-19T11:19:06.853Z,14.60
2022-10-19T11:21:43.511Z,14.50
2022-10-19T11:24:22.420Z,14.50
2022-10-19T11:27:11.764Z,14.40
2022-10-19T11:30:03.447Z,14.50
2022-10-19T11:32:49.844Z,14.40
2022-10-19T11:35:36.139Z,14.30
2022-10-19T11:38:33.227Z,14.20
2022-10-19T11:41:18.845Z,14.10
2022-10-19T11:44:22.070Z,14.30
2022-10-19T11:47:12.346Z,14.40
2022-10-19T11:50:00.704Z,14.50
2022-10-19T11:52:46.188Z,14.70
2022-10-19T11:55:29.270Z,14.70
2022-10-19T11:58:16.896Z,14.70
2022-10-19T12:00:57.854Z,14.60
2022-10-19T12:04:01.388Z,14.50
2022-10-19T12:06:40.833Z,14.50
2022-10-19T12:09:34.927Z,14.40
2022-10-19T12:12:21.105Z,14.30
2022-10-19T12:14:55.137Z,14.10
2022-10-19T12:17:30.513Z,14.00
2022-10-19T12:20:06.200Z,13.90
2022-10-19T12:22:38.370Z,13.90
2022-10-19T12:25:07.726Z,13.80
2022-10-19T12:27:39.190Z,13.70
2022-10-19T12:30:15.328Z,13.70
2022-10-19T12:33:01.829Z,13.70
2022-10-19T12:36:02.263Z,13.70
2022-10-19T12:38:49.466Z,13.60
2022-10-19T12:41:30.077Z,13.50
2022-10-19T12:44:17.602Z,13.40
2022-10-19T12:46:53.069Z,13.30
2022-10-19T12:49:55.513Z,13.30
2022-10-19T12:52:42.968Z,13.40
2022-10-19T12:55:25.027Z,13.40
2022-10-19T12:58:03.397Z,13.40
2022-10-19T13:00:35.565Z,13.40
2022-10-19T13:03:11.752Z,13.40
2022-10-19T13:05:41.331Z,13.50
2022-10-19T13:08:13.696Z,13.70
2022-10-19T13:10:42.567Z,13.60
2022-10-19T13:13:52.841Z,13.70
2022-10-19T13:17:02.702Z,13.70
2022-10-19T13:19:31.153Z,13.70
2022-10-19T13:22:28.701Z,13.80
2022-10-19T13:25:27.934Z,13.60
2022-10-19T13:28:01.847Z,13.60
2022-10-19T13:31:06.161Z,13.60
2022-10-19T13:33:48.474Z,13.60
2022-10-19T13:36:17.420Z,13.60
2022-10-19T13:39:02.653Z,13.50
2022-10-19T13:41:50.594Z,13.50
2022-10-19T13:44:36.594Z,13.40
2022-10-19T13:47:28.327Z,13.40
2022-10-19T13:50:20.848Z,13.40
2022-10-19T13:53:39.098Z,13.40
2022-10-19T13:56:47.144Z,13.30
2022-10-19T13:59:57.216Z,13.30
2022-10-19T14:02:59.187Z,13.40
2022-10-19T14:06:13.987Z,13.20
2022-10-19T14:09:37.043Z,13.20
2022-10-19T14:12:16.391Z,13.20
2022-10-19T14:14:45.652Z,13.10
2022-10-19T14:17:20.231Z,13.10
2022-10-19T14:19:51.939Z,13.00
2022-10-19T14:22:25.464Z,13.10
2022-10-19T14:25:01.216Z,13.00
2022-10-19T14:27:32.117Z,13.00
2022-10-19T14:30:00.421Z,12.70
2022-10-19T14:32:30.588Z,12.80
2022-10-19T14:35:18.890Z,12.90
2022-10-19T14:37:47.245Z,12.90
2022-10-19T14:40:29.370Z,12.90
2022-10-19T14:43:00.621Z,12.90
2022-10-19T14:45:30.883Z,12.80
2022-10-19T14:48:02.315Z,12.80
2022-10-19T14:50:42.926Z,12.70
2022-10-19T14:53:31.434Z,12.70
2022-10-19T14:56:04.952Z,12.60
2022-10-19T14:58:42.937Z,12.60
2022-10-19T15:01:13.120Z,12.50
2022-10-19T15:03:45.469Z,12.50
2022-10-19T15:06:22.461Z,12.50
2022-10-19T15:08:55.770Z,12.40
2022-10-19T15:11:32.062Z,12.30
2022-10-19T15:14:07.260Z,12.50
2022-10-19T15:16:45.590Z,12.50
2022-10-19T15:19:24.244Z,12.50
2022-10-19T15:22:12.911Z,12.30
2022-10-19T15:24:55.529Z,12.30
2022-10-19T15:27:32.088Z,12.20
2022-10-19T15:30:05.654Z,12.20
2022-10-19T15:32:38.761Z,12.10
2022-10-19T15:35:13.445Z,12.10
2022-10-19T15:37:45.409Z,12.00
2022-10-19T15:40:21.194Z,11.90
2022-10-19T15:42:49.374Z,11.90
2022-10-19T15:45:35.705Z,11.90
2022-10-19T15:48:27.818Z,11.80
2022-10-19T15:50:58.271Z,11.80
2022-10-19T15:53:27.285Z,11.90
2022-10-19T15:55:55.329Z,11.80
2022-10-19T15:58:23.393Z,11.80
2022-10-19T16:00:52.672Z,11.70
2022-10-19T16:03:20.589Z,11.60
2022-10-19T16:05:48.674Z,11.60
2022-10-19T16:08:16.634Z,11.60
2022-10-19T16:10:44.571Z,11.50
2022-10-19T16:13:12.483Z,11.50
2022-10-19T16:15:40.413Z,11.50
2022-10-19T16:18:12.094Z,11.40
2022-10-19T16:20:40.328Z,11.40
2022-10-19T16:23:08.658Z,11.40
2022-10-19T16:25:37.511Z,11.30
2022-10-19T16:28:05.718Z,11.30
2022-10-19T16:30:33.650Z,11.30
2022-10-19T16:33:01.623Z,11.30
2022-10-19T16:35:30.847Z,11.30
2022-10-19T16:37:58.959Z,11.30
2022-10-19T16:40:26.895Z,11.30
2022-10-19T16:42:56.647Z,11.30
2022-10-19T16:45:24.503Z,11.20
2022-10-19T16:47:52.462Z,11.30
2022-10-19T16:50:20.894Z,11.30
2022-10-19T16:53:05.322Z,11.20
2022-10-19T16:55:33.317Z,11.10
2022-10-19T16:58:01.230Z,11.00
2022-10-19T17:00:29.249Z,10.80
2022-10-19T17:02:57.155Z,10.80
2022-10-19T17:05:25.301Z,10.70
2022-10-19T17:07:54.569Z,10.50
2022-10-19T17:10:22.479Z,10.30
2022-10-19T17:12:50.416Z,10.20
2022-10-19T17:15:41.554Z,10.10
2022-10-19T17:18:07.057Z,10.00
2022-10-19T17:20:34.970Z,9.90
2022-10-19T17:23:04.216Z,9.70
2022-10-19T17:25:32.217Z,9.70
2022-10-19T17:28:00.113Z,9.60
2022-10-19T17:30:28.162Z,9.60
2022-10-19T17:32:56.145Z,9.50
2022-10-19T17:35:24.059Z,9.40
2022-10-19T17:37:51.964Z,9.40
2022-10-19T17:40:21.239Z,9.40
2022-10-19T17:42:49.118Z,9.40
2022-10-19T17:45:17.141Z,9.30
2022-10-19T17:47:45.080Z,9.30
2022-10-19T17:50:13.029Z,9.30
2022-10-19T17:52:40.990Z,9.30
2022-10-19T17:55:12.526Z,9.20
2022-10-19T17:57:42.674Z,9.10
2022-10-19T18:00:11.921Z,9.10
2022-10-19T18:02:40.547Z,9.00
2022-10-19T18:05:09.766Z,9.00
2022-10-19T18:07:38.033Z,9.00
2022-10-19T18:10:06.998Z,9.10
2022-10-19T18:12:34.944Z,9.10
2022-10-19T18:15:04.806Z,9.00
2022-10-19T18:17:32.724Z,8.90
2022-10-19T18:20:00.661Z,8.90
2022-10-19T18:22:28.609Z,8.90
2022-10-19T18:24:56.572Z,8.80
2022-10-19T18:27:24.648Z,8.80
2022-10-19T18:29:52.588Z,8.80
2022-10-19T18:32:21.874Z,8.70
2022-10-19T18:34:50.076Z,8.80
2022-10-19T18:37:17.974Z,8.70
2022-10-19T18:39:45.914Z,8.70
2022-10-19T18:42:13.848Z,8.60
2022-10-19T18:44:41.815Z,8.60
2022-10-19T18:47:09.824Z,8.50
2022-10-19T18:49:39.116Z,8.50
2022-10-19T18:52:07.111Z,8.50
2022-10-19T18:54:35.044Z,8.40
2022-10-19T18:57:03.034Z,8.40
2022-10-19T18:59:31.174Z,8.40
2022-10-19T19:01:59.109Z,8.40
2022-10-19T19:04:27.115Z,8.30
2022-10-19T19:06:56.456Z,8.40
2022-10-19T19:09:24.474Z,8.40
2022-10-19T19:11:54.195Z,8.40
2022-10-19T19:14:22.176Z,8.30
2022-10-19T19:16:50.238Z,8.30
2022-10-19T19:19:20.807Z,8.30
2022-10-19T19:21:49.902Z,8.30
2022-10-19T19:24:22.804Z,8.30
2022-10-19T19:26:54.710Z,8.30
2022-10-19T19:29:23.457Z,8.30
2022-10-19T19:31:53.311Z,8.20
2022-10-19T19:34:21.621Z,8.20
2022-10-19T19:36:49.821Z,8.20
2022-10-19T19:39:21.764Z,8.10
2022-10-19T19:41:50.907Z,8.20
2022-10-19T19:44:19.981Z,8.10
2022-10-19T19:46:48.473Z,8.10
2022-10-19T19:49:16.490Z,8.10
2022-10-19T19:51:44.466Z,8.10
2022-10-19T19:54:12.535Z,8.10
2022-10-19T19:56:42.411Z,8.10
2022-10-19T19:59:13.132Z,8.00
2022-10-19T20:01:41.332Z,8.00
2022-10-19T20:04:11.332Z,8.00
2022-10-19T20:06:42.859Z,7.90
2022-10-19T20:09:11.303Z,7.90
2022-10-19T20:11:42.624Z,7.90
2022-10-19T20:14:11.416Z,7.90
2022-10-19T20:16:39.379Z,7.90
2022-10-19T20:19:10.002Z,7.90
2022-10-19T20:21:38.407Z,7.80
2022-10-19T20:24:06.928Z,7.80
2022-10-19T20:26:35.274Z,7.80
2022-10-19T20:29:05.936Z,7.80
2022-10-19T20:31:39.358Z,7.80
2022-10-19T20:34:13.642Z,7.80
2022-10-19T20:36:42.144Z,7.80
2022-10-19T20:39:11.134Z,7.70
2022-10-19T20:41:39.222Z,7.80
2022-10-19T20:44:08.551Z,7.90
2022-10-19T20:46:37.237Z,7.80
2022-10-19T20:49:07.251Z,7.80
2022-10-19T20:51:37.851Z,7.80
2022-10-19T20:54:09.439Z,7.80
2022-10-19T20:56:39.936Z,7.70
2022-10-19T20:59:13.869Z,7.70
2022-10-19T21:01:44.561Z,7.70
2022-10-19T21:04:15.591Z,7.70
2022-10-19T21:06:46.610Z,7.70
2022-10-19T21:09:18.065Z,7.70
2022-10-19T21:11:50.046Z,7.70
2022-10-19T21:14:25.328Z,7.70
2022-10-19T21:16:57.693Z,7.70
2022-10-19T21:19:28.700Z,7.60
2022-10-19T21:22:01.636Z,7.60
2022-10-19T21:24:33.207Z,7.60
2022-10-19T21:27:03.768Z,7.60
2022-10-19T21:29:33.188Z,7.60
2022-10-19T21:32:01.199Z,7.60
2022-10-19T21:34:31.767Z,7.60
2022-10-19T21:37:00.389Z,7.60
2022-10-19T21:39:28.453Z,7.60
2022-10-19T21:41:56.449Z,7.60
2022-10-19T21:44:24.483Z,7.60
2022-10-19T21:46:53.888Z,7.60
2022-10-19T21:49:21.907Z,7.60
2022-10-19T21:51:53.520Z,7.50
2022-10-19T21:54:24.749Z,7.50
2022-10-19T21:56:55.030Z,7.50
2022-10-19T21:59:23.197Z,7.50
2022-10-19T22:01:51.280Z,7.40
2022-10-19T22:04:20.659Z,7.40
2022-10-19T22:06:49.023Z,7.40
2022-10-19T22:09:21.169Z,7.40
2022-10-19T22:11:49.921Z,7.30
2022-10-19T22:14:18.654Z,7.30
2022-10-19T22:16:46.684Z,7.40
2022-10-19T22:19:14.776Z,7.30
2022-10-19T22:21:44.191Z,7.40
2022-10-19T22:24:15.702Z,7.30
2022-10-19T22:26:50.524Z,7.40
2022-10-19T22:29:18.777Z,7.40
2022-10-19T22:31:46.817Z,7.30
2022-10-19T22:34:17.591Z,7.30
2022-10-19T22:36:47.165Z,7.30
2022-10-19T22:39:16.353Z,7.30
2022-10-19T22:41:44.378Z,7.20
2022-10-19T22:44:12.499Z,7.20
2022-10-19T22:46:40.452Z,7.20
2022-10-19T22:51:41.984Z,7.20
2022-10-19T22:54:11.510Z,7.20
2022-10-19T22:56:40.047Z,7.10
2022-10-19T22:59:08.518Z,7.10
2022-10-19T23:01:37.395Z,7.10
2022-10-19T23:04:05.612Z,7.00
2022-10-19T23:06:33.819Z,7.10
2022-10-19T23:09:01.846Z,7.00
2022-10-19T23:11:31.208Z,6.90
2022-10-19T23:13:59.336Z,7.00
2022-10-19T23:18:56.337Z,6.90
2022-10-19T23:21:24.303Z,6.90
2022-10-19T23:23:52.288Z,6.80
2022-10-19T23:26:21.997Z,6.70
2022-10-19T23:28:52.099Z,6.80
2022-10-19T23:31:24.770Z,6.70
2022-10-19T23:33:53.890Z,6.70
2022-10-19T23:36:24.613Z,6.70
2022-10-19T23:38:55.136Z,6.70
2022-10-19T23:41:24.189Z,6.70
2022-10-19T23:43:53.595Z,6.70
2022-10-19T23:46:21.707Z,6.80
2022-10-19T23:48:49.792Z,6.70
2022-10-19T23:51:21.744Z,6.70
2022-10-19T23:53:52.220Z,6.70
2022-10-19T23:56:23.388Z,6.70
2022-10-19T23:58:53.691Z,6.60
